createdAt,value
2019-03-16T00:01:04.108Z,0.20
2019-03-16T00:05:10.152Z,0.30
2019-03-16T00:09:15.857Z,0.20
2019-03-16T00:13:21.550Z,0.17
2019-03-16T00:17:27.230Z,0.30
2019-03-16T00:21:32.935Z,0.20
2019-03-16T00:25:38.631Z,0.40
2019-03-16T00:29:44.318Z,0.23
2019-03-16T00:33:50.016Z,0.20
2019-03-16T00:37:55.699Z,0.30
2019-03-16T00:42:01.477Z,0.23
2019-03-16T00:46:07.354Z,0.20
2019-03-16T00:50:14.661Z,0.30
2019-03-16T00:54:20.352Z,0.13
2019-03-16T00:58:26.033Z,0.30
2019-03-16T01:02:33.029Z,0.10
2019-03-16T01:06:38.794Z,0.47
2019-03-16T01:10:44.495Z,0.30
2019-03-16T01:14:50.191Z,0.57
2019-03-16T01:18:55.892Z,0.30
2019-03-16T01:23:01.591Z,0.20
2019-03-16T01:27:07.379Z,0.20
2019-03-16T01:31:13.154Z,0.30
2019-03-16T01:35:18.956Z,0.40
2019-03-16T01:39:24.633Z,0.30
2019-03-16T01:43:30.319Z,0.27
2019-03-16T01:47:36.080Z,0.20
2019-03-16T01:51:41.775Z,0.27
2019-03-16T01:55:47.518Z,0.20
2019-03-16T01:59:53.212Z,0.20
2019-03-16T02:03:58.907Z,0.30
2019-03-16T02:08:04.669Z,0.60
2019-03-16T02:12:10.369Z,0.17
2019-03-16T02:16:16.048Z,0.30
2019-03-16T02:20:21.744Z,0.13
2019-03-16T02:24:27.437Z,0.20
2019-03-16T02:28:33.134Z,0.10
2019-03-16T02:32:39.039Z,0.20
2019-03-16T02:36:54.435Z,0.30
2019-03-16T02:41:00.195Z,0.27
2019-03-16T02:45:10.163Z,0.20
2019-03-16T02:49:15.844Z,0.30
2019-03-16T02:53:21.554Z,0.20
2019-03-16T02:57:27.215Z,0.30
2019-03-16T03:01:32.902Z,0.10
2019-03-16T03:05:38.599Z,0.10
2019-03-16T03:09:44.288Z,0.20
2019-03-16T03:13:49.962Z,0.10
2019-03-16T03:17:55.648Z,0.00
2019-03-16T03:22:01.340Z,0.23
2019-03-16T03:26:07.032Z,0.30
2019-03-16T03:30:15.773Z,0.20
2019-03-16T03:34:21.452Z,0.20
2019-03-16T03:38:27.141Z,0.10
2019-03-16T03:42:32.901Z,0.20
2019-03-16T03:46:38.665Z,0.20
2019-03-16T03:50:44.356Z,0.40
2019-03-16T03:54:50.111Z,0.37
2019-03-16T03:58:55.878Z,0.50
2019-03-16T04:03:01.575Z,0.33
2019-03-16T04:07:07.322Z,0.50
2019-03-16T04:11:13.035Z,0.63
2019-03-16T04:15:18.745Z,0.30
2019-03-16T04:19:24.446Z,0.50
2019-03-16T04:23:30.234Z,0.27
2019-03-16T04:27:35.913Z,0.30
2019-03-16T04:31:41.583Z,0.20
2019-03-16T04:35:47.268Z,0.10
2019-03-16T04:39:53.007Z,0.30
2019-03-16T04:43:58.698Z,0.20
2019-03-16T04:48:04.455Z,0.23
2019-03-16T04:52:10.133Z,0.20
2019-03-16T04:56:15.822Z,0.40
2019-03-16T05:00:21.551Z,0.37
2019-03-16T05:04:27.240Z,0.30
2019-03-16T05:08:32.913Z,0.40
2019-03-16T05:12:38.675Z,0.40
2019-03-16T05:16:44.382Z,0.40
2019-03-16T05:20:50.077Z,0.33
2019-03-16T05:24:55.908Z,0.33
2019-03-16T05:29:01.583Z,0.50
2019-03-16T05:33:07.286Z,0.40
2019-03-16T05:37:12.989Z,0.50
2019-03-16T05:41:18.676Z,0.70
2019-03-16T05:45:24.511Z,0.50
2019-03-16T05:49:30.184Z,0.67
2019-03-16T05:53:35.868Z,0.60
2019-03-16T05:57:41.560Z,0.40
2019-03-16T06:01:47.276Z,0.60
2019-03-16T06:05:55.094Z,0.50
2019-03-16T06:10:00.405Z,0.60
2019-03-16T06:14:06.348Z,0.50
2019-03-16T06:18:13.324Z,0.80
2019-03-16T06:22:20.741Z,0.70
2019-03-16T06:26:26.415Z,0.70
2019-03-16T06:30:32.103Z,0.83
2019-03-16T06:34:37.794Z,0.90
2019-03-16T06:38:43.484Z,0.90
2019-03-16T06:42:49.178Z,0.70
2019-03-16T06:46:54.952Z,0.90
2019-03-16T06:51:00.660Z,1.10
2019-03-16T06:55:08.281Z,1.15
2019-03-16T06:59:13.966Z,1.13
2019-03-16T07:03:19.652Z,0.90
2019-03-16T07:07:25.329Z,1.00
2019-03-16T07:11:31.017Z,1.20
2019-03-16T07:15:36.715Z,1.07
2019-03-16T07:19:42.413Z,1.60
2019-03-16T07:23:48.113Z,1.20
2019-03-16T07:27:53.832Z,1.20
2019-03-16T07:37:04.808Z,1.07
2019-03-16T07:41:10.508Z,1.20
2019-03-16T07:45:16.325Z,1.50
2019-03-16T07:49:22.041Z,1.50
2019-03-16T07:53:27.713Z,1.30
2019-03-16T07:57:40.084Z,1.40
2019-03-16T08:01:40.813Z,1.40
2019-03-16T08:05:46.503Z,1.27
2019-03-16T08:09:52.258Z,1.20
2019-03-16T08:13:57.944Z,1.20
2019-03-16T08:18:03.700Z,1.10
2019-03-16T08:22:09.446Z,1.23
2019-03-16T08:26:15.226Z,1.20
2019-03-16T08:30:23.527Z,1.40
2019-03-16T08:34:28.308Z,1.50
2019-03-16T08:38:34.014Z,1.30
2019-03-16T08:42:39.691Z,1.10
2019-03-16T08:46:45.394Z,1.43
2019-03-16T08:50:51.091Z,0.90
2019-03-16T08:54:56.816Z,1.23
2019-03-16T08:59:02.517Z,1.50
2019-03-16T09:03:08.215Z,1.40
2019-03-16T09:07:13.960Z,1.20
2019-03-16T09:11:19.681Z,0.90
2019-03-16T09:15:25.332Z,1.00
2019-03-16T09:19:31.017Z,1.20
2019-03-16T09:23:36.721Z,1.00
2019-03-16T09:27:42.397Z,1.13
2019-03-16T09:31:48.106Z,1.10
2019-03-16T09:35:53.801Z,0.90
2019-03-16T09:39:59.496Z,1.23
2019-03-16T09:44:05.709Z,1.10
2019-03-16T09:48:11.408Z,1.03
2019-03-16T09:52:17.110Z,1.10
2019-03-16T09:56:22.800Z,1.33
2019-03-16T10:00:28.480Z,1.30
2019-03-16T10:04:34.154Z,0.97
2019-03-16T10:08:39.929Z,1.10
2019-03-16T10:12:45.702Z,1.00
2019-03-16T10:16:51.413Z,1.10
2019-03-16T10:20:57.188Z,1.10
2019-03-16T10:25:02.938Z,1.13
2019-03-16T10:29:08.621Z,1.23
2019-03-16T10:33:14.318Z,1.60
2019-03-16T10:37:19.999Z,1.10
2019-03-16T10:41:25.774Z,1.30
2019-03-16T10:45:31.487Z,1.00
2019-03-16T10:49:37.260Z,1.03
2019-03-16T10:53:42.950Z,1.10
2019-03-16T10:57:48.725Z,1.10
2019-03-16T11:01:54.435Z,1.00
2019-03-16T11:06:00.174Z,1.00
2019-03-16T11:10:12.314Z,1.00
2019-03-16T11:14:19.075Z,1.00
2019-03-16T11:18:24.759Z,0.73
2019-03-16T11:22:31.423Z,1.10
2019-03-16T11:26:37.120Z,0.90
2019-03-16T11:30:42.835Z,1.03
2019-03-16T11:34:48.508Z,0.70
2019-03-16T11:38:54.212Z,0.97
2019-03-16T11:42:59.895Z,1.00
2019-03-16T11:47:05.690Z,1.22
2019-03-16T11:51:11.388Z,0.90
2019-03-16T11:55:18.698Z,1.10
2019-03-16T11:59:24.443Z,1.30
2019-03-16T12:03:30.176Z,1.00
2019-03-16T12:07:35.867Z,1.00
2019-03-16T12:11:41.573Z,1.60
2019-03-16T12:15:47.297Z,1.00
2019-03-16T12:19:52.978Z,0.90
2019-03-16T12:23:58.843Z,0.90
2019-03-16T12:28:04.611Z,1.00
2019-03-16T12:32:10.356Z,1.00
2019-03-16T12:36:16.046Z,0.87
2019-03-16T12:40:21.793Z,0.90
2019-03-16T12:44:28.443Z,1.07
2019-03-16T12:48:34.139Z,0.83
2019-03-16T12:52:39.832Z,0.73
2019-03-16T12:56:45.604Z,1.00
2019-03-16T13:00:51.273Z,0.80
2019-03-16T13:04:57.081Z,0.90
2019-03-16T13:09:02.894Z,0.80
2019-03-16T13:13:11.715Z,0.90
2019-03-16T13:17:16.050Z,0.63
2019-03-16T13:21:21.741Z,0.73
2019-03-16T13:25:27.435Z,0.97
2019-03-16T13:29:33.127Z,1.00
2019-03-16T13:33:38.814Z,1.13
2019-03-16T13:37:44.530Z,0.93
2019-03-16T13:41:50.291Z,1.07
2019-03-16T13:45:56.079Z,1.07
2019-03-16T13:50:01.760Z,0.80
2019-03-16T13:54:07.466Z,1.10
2019-03-16T13:58:13.147Z,0.90
2019-03-16T14:02:18.838Z,1.00
2019-03-16T14:06:25.494Z,0.80
2019-03-16T14:10:33.192Z,0.80
2019-03-16T14:14:38.889Z,1.03
2019-03-16T14:18:44.579Z,0.70
2019-03-16T14:22:50.277Z,0.70
2019-03-16T14:26:56.037Z,0.90
2019-03-16T14:31:01.739Z,1.00
2019-03-16T14:35:08.198Z,1.37
2019-03-16T14:39:13.886Z,1.00
2019-03-16T14:43:19.579Z,0.97
2019-03-16T14:47:25.335Z,0.87
2019-03-16T14:51:31.024Z,0.83
2019-03-16T14:55:36.747Z,1.30
2019-03-16T14:59:42.434Z,0.97
2019-03-16T15:03:48.144Z,1.00
2019-03-16T15:07:53.834Z,1.03
2019-03-16T15:11:59.545Z,0.70
2019-03-16T15:16:05.519Z,1.00
2019-03-16T15:20:12.332Z,0.97
2019-03-16T15:24:18.017Z,0.80
2019-03-16T15:28:23.716Z,0.90
2019-03-16T15:32:29.425Z,0.90
2019-03-16T15:36:35.124Z,0.63
2019-03-16T15:40:40.824Z,0.90
2019-03-16T15:44:46.515Z,0.90
2019-03-16T15:48:52.281Z,1.23
2019-03-16T15:52:58.036Z,0.80
2019-03-16T15:57:03.866Z,0.83
2019-03-16T16:01:09.671Z,1.00
2019-03-16T16:05:15.578Z,1.30
2019-03-16T16:09:21.352Z,0.93
2019-03-16T16:13:27.068Z,1.00
2019-03-16T16:17:32.769Z,1.00
2019-03-16T16:21:38.474Z,1.00
2019-03-16T16:25:44.308Z,1.00
2019-03-16T16:29:52.682Z,0.90
2019-03-16T16:33:58.533Z,0.90
2019-03-16T16:38:07.271Z,0.83
2019-03-16T16:42:11.743Z,1.00
2019-03-16T16:46:17.457Z,0.90
2019-03-16T16:50:27.020Z,1.10
2019-03-16T16:54:32.717Z,1.23
2019-03-16T16:58:41.569Z,1.60
2019-03-16T17:02:47.267Z,1.40
2019-03-16T17:06:54.120Z,1.07
2019-03-16T17:10:59.811Z,1.00
2019-03-16T17:15:11.584Z,1.00
2019-03-16T17:19:18.245Z,1.10
2019-03-16T17:23:23.933Z,1.00
2019-03-16T17:27:29.627Z,1.10
2019-03-16T17:31:42.139Z,0.80
2019-03-16T17:35:42.733Z,1.20
2019-03-16T17:39:48.396Z,1.17
2019-03-16T17:43:54.106Z,1.30
2019-03-16T17:47:59.857Z,1.10
2019-03-16T17:52:05.778Z,1.03
2019-03-16T17:56:12.979Z,1.20
2019-03-16T18:00:19.884Z,1.00
2019-03-16T18:04:27.829Z,1.10
2019-03-16T18:08:33.069Z,1.00
2019-03-16T18:12:38.883Z,1.33
2019-03-16T18:16:44.570Z,1.30
2019-03-16T18:20:50.304Z,1.30
2019-03-16T18:24:55.999Z,1.20
2019-03-16T18:29:01.703Z,1.10
2019-03-16T18:33:07.448Z,1.15
2019-03-16T18:37:13.122Z,1.10
2019-03-16T18:41:18.829Z,1.20
2019-03-16T18:45:35.055Z,1.17
2019-03-16T18:49:40.824Z,1.17
2019-03-16T18:53:46.541Z,1.40
2019-03-16T18:57:52.251Z,1.50
2019-03-16T19:01:57.970Z,1.70
2019-03-16T19:06:03.791Z,2.00
2019-03-16T19:10:19.186Z,1.87
2019-03-16T19:14:24.881Z,1.70
2019-03-16T19:18:30.584Z,1.70
2019-03-16T19:22:36.277Z,1.73
2019-03-16T19:26:41.980Z,1.30
2019-03-16T19:30:47.690Z,1.10
2019-03-16T19:34:53.384Z,1.17
2019-03-16T19:38:59.089Z,1.10
2019-03-16T19:43:04.900Z,1.10
2019-03-16T19:47:12.400Z,1.00
2019-03-16T19:51:18.114Z,1.10
2019-03-16T19:55:23.822Z,1.10
2019-03-16T19:59:30.470Z,1.00
2019-03-16T20:03:36.189Z,0.90
2019-03-16T20:07:41.903Z,1.00
2019-03-16T20:11:47.605Z,1.30
2019-03-16T20:15:53.353Z,1.20
2019-03-16T20:19:59.050Z,1.17
2019-03-16T20:24:04.748Z,1.20
2019-03-16T20:28:10.447Z,1.00
2019-03-16T20:32:16.135Z,1.20
2019-03-16T20:36:21.850Z,1.10
2019-03-16T20:40:27.539Z,1.10
2019-03-16T20:44:33.228Z,1.00
2019-03-16T20:48:38.933Z,1.20
2019-03-16T20:52:44.608Z,1.00
2019-03-16T20:56:50.291Z,1.20
2019-03-16T21:00:58.267Z,1.10
2019-03-16T21:05:04.262Z,0.83
2019-03-16T21:09:10.005Z,1.00
2019-03-16T21:13:15.698Z,0.90
2019-03-16T21:17:21.440Z,1.10
2019-03-16T21:21:27.215Z,0.90
2019-03-16T21:25:32.919Z,1.00
2019-03-16T21:29:38.626Z,1.20
2019-03-16T21:33:45.878Z,1.00
2019-03-16T21:37:51.657Z,1.03
2019-03-16T21:41:58.357Z,0.90
2019-03-16T21:46:04.128Z,0.80
2019-03-16T21:50:15.107Z,1.20
2019-03-16T21:54:22.070Z,1.10
2019-03-16T21:58:27.771Z,1.30
2019-03-16T22:02:33.503Z,0.90
2019-03-16T22:06:39.209Z,0.90
2019-03-16T22:10:44.910Z,1.00
2019-03-16T22:14:50.595Z,1.00
2019-03-16T22:18:56.281Z,1.20
2019-03-16T22:23:02.952Z,1.10
2019-03-16T22:27:08.667Z,0.90
2019-03-16T22:31:14.432Z,1.10
2019-03-16T22:35:20.135Z,1.33
2019-03-16T22:39:25.831Z,1.33
2019-03-16T22:43:31.519Z,1.10
2019-03-16T22:47:37.219Z,1.20
2019-03-16T22:51:42.896Z,1.10
2019-03-16T22:55:48.581Z,1.20
2019-03-16T22:59:54.276Z,1.07
2019-03-16T23:04:06.902Z,1.10
2019-03-16T23:08:07.445Z,1.80
2019-03-16T23:12:13.213Z,1.03
2019-03-16T23:16:19.090Z,1.63
2019-03-16T23:20:24.804Z,1.43
2019-03-16T23:24:30.491Z,1.73
2019-03-16T23:28:36.319Z,2.00
2019-03-16T23:32:42.228Z,1.17
2019-03-16T23:36:48.038Z,1.10
2019-03-16T23:40:53.724Z,1.13
2019-03-16T23:44:59.439Z,1.00
2019-03-16T23:49:05.125Z,1.13
2019-03-16T23:53:10.877Z,1.00
2019-03-16T23:57:16.647Z,1.10
